Time;durP1;ratioP1;P1;durP2;ratioP2;P2;SDS_P1;SDS_P2;PMS_P1;PMS_P2;Temp;Humidity;BMP_temperature;BMP_pressure;BME280_temperature;BME280_humidity;BME280_pressure;Samples;Min_cycle;Max_cycle;Signal;HPM_P1;HPM_P2
2022/04/29 03:02:41;;;;;;;16.43;15.03;;;4.60;99.90;;;;;;5010710;28;20246;-77
2022/04/29 03:05:07;;;;;;;13.27;12.23;;;4.60;99.90;;;;;;5029396;28;20204;-77
2022/04/29 03:07:33;;;;;;;12.80;11.80;;;4.60;99.90;;;;;;5013653;28;20237;-77
2022/04/29 03:10:00;;;;;;;12.97;11.77;;;4.50;99.90;;;;;;5018475;28;20262;-78
2022/04/29 03:15:15;;;;;;;12.47;11.47;;;4.50;99.90;;;;;;4990415;28;20267;-76
2022/04/29 03:20:34;;;;;;;12.33;11.13;;;4.40;99.90;;;;;;4994299;28;20654;-75
2022/04/29 03:23:00;;;;;;;15.63;12.13;;;4.30;99.90;;;;;;4972668;28;20304;-77
2022/04/29 03:25:25;;;;;;;14.17;13.17;;;4.30;99.90;;;;;;4973187;28;20716;-76
2022/04/29 03:27:51;;;;;;;14.30;13.20;;;4.30;99.90;;;;;;4957027;28;20181;-77
2022/04/29 03:30:17;;;;;;;17.63;16.27;;;4.40;99.90;;;;;;4957052;28;20178;-77
2022/04/29 03:32:54;;;;;;;16.40;15.13;;;4.40;99.90;;;;;;4974265;28;20197;-77
2022/04/29 03:35:20;;;;;;;16.63;15.30;;;4.50;99.90;;;;;;4974445;28;20259;-76
2022/04/29 03:37:51;;;;;;;12.43;11.30;;;4.50;99.90;;;;;;4973949;28;20704;-76
2022/04/29 03:40:20;;;;;;;12.87;11.80;;;4.40;99.90;;;;;;4957237;28;20696;-77
2022/04/29 03:42:47;;;;;;;12.97;11.70;;;4.50;99.90;;;;;;4956996;28;20232;-76
2022/04/29 03:45:12;;;;;;;13.17;11.90;;;4.50;99.90;;;;;;4957435;28;20854;-76
2022/04/29 03:47:38;;;;;;;12.80;11.70;;;4.40;99.90;;;;;;4955584;28;20187;-76
2022/04/29 03:50:05;;;;;;;12.10;11.20;;;4.50;99.90;;;;;;4973874;28;20268;-76
2022/04/29 03:52:31;;;;;;;12.43;11.17;;;4.50;99.90;;;;;;4974254;28;20185;-76
2022/04/29 03:54:57;;;;;;;12.23;11.33;;;4.50;99.90;;;;;;4973279;28;20240;-75
2022/04/29 03:57:23;;;;;;;12.17;11.07;;;4.50;99.90;;;;;;4961726;28;20200;-76
2022/04/29 03:59:49;;;;;;;13.50;12.07;;;4.40;99.90;;;;;;4969985;28;20210;-76
2022/04/29 04:02:15;;;;;;;13.30;12.10;;;4.40;99.90;;;;;;4969775;28;20209;-76
2022/04/29 04:04:42;;;;;;;12.70;11.50;;;4.40;99.90;;;;;;4954606;28;20386;-75
2022/04/29 04:07:08;;;;;;;12.50;11.50;;;4.50;99.90;;;;;;4969420;28;20178;-76
2022/04/29 04:09:34;;;;;;;12.67;11.63;;;4.50;99.90;;;;;;4959976;28;20211;-77
2022/04/29 04:12:00;;;;;;;12.43;11.43;;;4.40;99.90;;;;;;4954374;28;20208;-75
2022/04/29 04:14:25;;;;;;;12.70;11.63;;;4.40;99.90;;;;;;4939908;29;20572;-76
2022/04/29 04:16:51;;;;;;;12.77;11.47;;;4.40;99.90;;;;;;4953084;28;20213;-77
2022/04/29 04:19:17;;;;;;;12.83;11.73;;;4.40;99.90;;;;;;4953664;28;20276;-77
2022/04/29 04:21:43;;;;;;;13.17;11.87;;;4.50;99.90;;;;;;4954864;28;20224;-77
2022/04/29 04:24:09;;;;;;;12.90;11.70;;;4.60;99.90;;;;;;4973365;28;20201;-77
2022/04/29 04:26:35;;;;;;;13.47;12.30;;;4.50;99.90;;;;;;4970577;28;20518;-77
2022/04/29 04:29:00;;;;;;;12.70;11.60;;;4.50;99.90;;;;;;4949961;28;20185;-75
2022/04/29 04:31:26;;;;;;;12.20;11.30;;;4.50;99.90;;;;;;4957791;28;20331;-75
2022/04/29 04:33:52;;;;;;;14.13;11.93;;;4.60;99.90;;;;;;4973774;28;20255;-77
2022/04/29 04:36:19;;;;;;;13.33;12.03;;;4.60;99.90;;;;;;4972950;28;20200;-77
2022/04/29 04:38:47;;;;;;;12.70;11.50;;;4.80;99.90;;;;;;4972189;28;20211;-77
2022/04/29 04:41:16;;;;;;;12.37;11.20;;;4.80;99.90;;;;;;4972924;28;20181;-77
2022/04/29 04:43:45;;;;;;;13.07;11.87;;;4.90;99.90;;;;;;4971047;28;20579;-77
2022/04/29 04:46:12;;;;;;;14.60;13.20;;;5.00;99.90;;;;;;4973037;28;20197;-76
2022/04/29 04:48:38;;;;;;;13.17;11.97;;;5.20;99.90;;;;;;4972688;28;20630;-77
2022/04/29 04:51:04;;;;;;;13.77;12.37;;;5.30;99.90;;;;;;4971722;28;20192;-77
2022/04/29 04:53:30;;;;;;;22.07;20.37;;;5.50;99.90;;;;;;4972007;28;20201;-77
2022/04/29 04:55:56;;;;;;;19.10;13.70;;;5.60;99.90;;;;;;4974484;28;20613;-77
2022/04/29 04:58:22;;;;;;;13.53;12.43;;;5.80;99.90;;;;;;4971206;28;20181;-77
2022/04/29 05:00:48;;;;;;;12.47;11.20;;;5.90;99.90;;;;;;4955698;28;20188;-77
2022/04/29 05:03:14;;;;;;;14.53;13.17;;;6.00;99.90;;;;;;4974746;28;20228;-76
2022/04/29 05:05:39;;;;;;;33.03;31.03;;;6.30;99.90;;;;;;4985690;28;20201;-76
2022/04/29 05:08:05;;;;;;;20.97;19.57;;;6.40;99.90;;;;;;4983872;28;20231;-77
2022/04/29 05:10:32;;;;;;;14.97;13.77;;;6.60;99.90;;;;;;4958072;28;20180;-76
2022/04/29 05:12:57;;;;;;;13.43;12.23;;;6.80;99.90;;;;;;4985062;28;20243;-76
2022/04/29 05:15:23;;;;;;;14.00;12.83;;;7.00;99.90;;;;;;4973677;28;20664;-77
2022/04/29 05:17:49;;;;;;;15.53;13.47;;;7.20;99.90;;;;;;4973341;28;20192;-77
2022/04/29 05:20:16;;;;;;;11.97;11.07;;;7.40;99.90;;;;;;4972903;28;20272;-77
2022/04/29 05:22:43;;;;;;;13.70;12.67;;;7.70;99.90;;;;;;4972128;28;20723;-77
2022/04/29 05:25:09;;;;;;;18.60;17.33;;;8.00;99.90;;;;;;4955829;28;20182;-77
2022/04/29 05:27:35;;;;;;;30.23;28.43;;;8.20;99.90;;;;;;4971088;28;20208;-77
2022/04/29 05:30:02;;;;;;;19.97;18.60;;;8.40;99.90;;;;;;4955513;28;20284;-77
2022/04/29 05:32:29;;;;;;;12.40;10.47;;;8.70;99.90;;;;;;4955858;28;20186;-76
2022/04/29 05:34:56;;;;;;;11.67;10.67;;;9.00;99.90;;;;;;4955495;28;20205;-77
2022/04/29 05:37:22;;;;;;;10.97;10.17;;;9.30;99.90;;;;;;4971135;28;20189;-77
2022/04/29 05:42:33;;;;;;;17.60;15.80;;;9.70;99.90;;;;;;4971576;28;20205;-74
2022/04/29 05:45:00;;;;;;;19.80;17.33;;;9.90;99.90;;;;;;4955008;28;20176;-74
2022/04/29 05:47:26;;;;;;;19.40;17.90;;;10.00;99.90;;;;;;4971853;28;20204;-73
2022/04/29 05:49:52;;;;;;;21.67;20.17;;;9.90;99.90;;;;;;4970969;28;20212;-72
2022/04/29 05:52:18;;;;;;;21.30;19.90;;;9.90;99.90;;;;;;4955009;28;20645;-74
2022/04/29 05:54:45;;;;;;;21.83;20.27;;;9.80;99.90;;;;;;4974408;28;20252;-75
2022/04/29 05:57:11;;;;;;;19.97;18.23;;;9.70;99.90;;;;;;4975599;28;20185;-75
2022/04/29 05:59:37;;;;;;;21.30;19.47;;;9.60;99.90;;;;;;4976489;28;20181;-75
2022/04/29 06:02:03;;;;;;;21.43;19.93;;;9.60;99.90;;;;;;4976253;28;20267;-74
2022/04/29 06:04:29;;;;;;;20.83;19.03;;;9.60;99.90;;;;;;4976209;28;20297;-74
2022/04/29 06:06:54;;;;;;;20.63;18.90;;;9.70;99.90;;;;;;4975641;28;20268;-74
2022/04/29 06:09:20;;;;;;;17.80;16.40;;;9.90;99.90;;;;;;4975844;28;20187;-75
2022/04/29 06:11:46;;;;;;;14.97;13.67;;;10.00;99.90;;;;;;4976017;28;20268;-75
2022/04/29 06:14:12;;;;;;;15.07;13.87;;;10.20;99.90;;;;;;4958766;28;20225;-75
2022/04/29 06:16:38;;;;;;;13.50;12.50;;;10.30;99.90;;;;;;4975944;28;20196;-74
2022/04/29 06:19:03;;;;;;;13.90;12.70;;;10.40;99.90;;;;;;4958137;28;20182;-74
2022/04/29 06:21:29;;;;;;;14.47;13.23;;;10.40;99.90;;;;;;4975641;28;20250;-74
2022/04/29 06:23:55;;;;;;;13.40;12.20;;;10.40;99.90;;;;;;4975250;28;20677;-74
2022/04/29 06:26:21;;;;;;;13.33;12.33;;;10.30;99.90;;;;;;4975662;28;20188;-74
2022/04/29 06:28:47;;;;;;;15.83;14.40;;;10.30;99.90;;;;;;4975228;28;20596;-74
2022/04/29 06:31:12;;;;;;;13.23;12.17;;;10.40;99.90;;;;;;4975533;28;20184;-74
2022/04/29 06:33:38;;;;;;;16.80;13.63;;;10.80;99.90;;;;;;4975196;28;20200;-75
2022/04/29 06:36:06;;;;;;;11.97;10.77;;;11.10;99.90;;;;;;4974268;28;20181;-72
2022/04/29 06:38:32;;;;;;;16.67;9.30;;;11.70;99.90;;;;;;4974478;28;20644;-71
2022/04/29 06:40:58;;;;;;;15.03;9.80;;;12.20;99.90;;;;;;4975286;28;20184;-71
2022/04/29 06:43:24;;;;;;;10.17;9.17;;;12.90;99.90;;;;;;4973876;28;20219;-73
2022/04/29 06:45:50;;;;;;;13.53;10.20;;;13.50;99.90;;;;;;4975272;28;20185;-73
2022/04/29 06:48:16;;;;;;;10.03;9.23;;;14.00;99.90;;;;;;4974857;28;20543;-73
2022/04/29 06:50:45;;;;;;;9.37;8.63;;;14.30;99.90;;;;;;4956804;28;20188;-73
2022/04/29 06:53:11;;;;;;;9.70;8.87;;;14.80;99.90;;;;;;4955717;28;20288;-74
2022/04/29 06:55:38;;;;;;;14.00;11.40;;;15.30;99.90;;;;;;4970107;28;20207;-73
2022/04/29 06:58:06;;;;;;;13.27;12.07;;;15.50;99.90;;;;;;4955383;29;20326;-74
2022/04/29 07:00:33;;;;;;;13.20;12.17;;;15.60;99.90;;;;;;4970614;28;20190;-73
2022/04/29 07:03:02;;;;;;;11.07;10.27;;;15.80;99.90;;;;;;4955388;28;20272;-74
2022/04/29 07:05:33;;;;;;;11.23;10.27;;;15.90;99.90;;;;;;4967985;28;20181;-73
2022/04/29 07:07:59;;;;;;;10.83;10.03;;;16.00;99.90;;;;;;4973149;28;20680;-73
2022/04/29 07:10:25;;;;;;;11.30;10.40;;;16.00;99.90;;;;;;4957740;28;20187;-74
2022/04/29 07:12:51;;;;;;;12.70;11.57;;;16.00;99.90;;;;;;4973330;28;20676;-74
2022/04/29 07:15:17;;;;;;;13.07;12.00;;;16.10;99.90;;;;;;4957712;28;20181;-74
2022/04/29 07:17:43;;;;;;;12.27;11.10;;;16.40;99.90;;;;;;4956786;28;20217;-74
2022/04/29 07:20:11;;;;;;;10.70;9.87;;;16.60;99.90;;;;;;4974766;28;20221;-74
2022/04/29 07:22:39;;;;;;;10.63;9.73;;;16.40;99.90;;;;;;4974278;28;20216;-74
2022/04/29 07:25:06;;;;;;;11.50;10.47;;;16.50;99.90;;;;;;4973582;28;20188;-74
2022/04/29 07:27:32;;;;;;;11.73;10.73;;;16.70;99.60;;;;;;4974246;28;20185;-74
2022/04/29 07:29:59;;;;;;;10.50;8.97;;;17.00;99.80;;;;;;4974612;28;20187;-75
2022/04/29 07:32:25;;;;;;;10.83;9.20;;;17.10;98.90;;;;;;4958100;28;20186;-74
2022/04/29 07:43:13;;;;;;;9.07;8.17;;;17.70;99.20;;;;;;4954822;28;20264;-74
2022/04/29 07:45:40;;;;;;;9.73;8.80;;;18.30;97.20;;;;;;4958293;28;20653;-74
2022/04/29 07:48:07;;;;;;;10.90;8.57;;;18.10;95.00;;;;;;4973928;28;20663;-74
2022/04/29 07:50:35;;;;;;;11.50;9.20;;;17.90;96.20;;;;;;4974152;28;20219;-74
2022/04/29 07:53:02;;;;;;;11.47;8.77;;;18.10;95.90;;;;;;4972758;28;20229;-74
2022/04/29 07:55:29;;;;;;;10.57;9.50;;;18.40;95.70;;;;;;4956683;28;20224;-73
2022/04/29 07:57:56;;;;;;;10.63;9.63;;;18.80;96.50;;;;;;4974975;28;20235;-74
2022/04/29 08:00:22;;;;;;;9.80;9.00;;;19.50;95.40;;;;;;4959608;28;20636;-74
2022/04/29 08:02:48;;;;;;;14.38;13.10;;;19.90;92.00;;;;;;4974754;28;20308;-73
2022/04/29 08:05:14;;;;;;;15.87;13.23;;;20.40;91.90;;;;;;4973499;28;20665;-73
2022/04/29 08:07:40;;;;;;;15.45;13.82;;;20.40;92.10;;;;;;4956122;28;20213;-75
2022/04/29 08:10:06;;;;;;;14.63;13.10;;;20.20;91.50;;;;;;4974237;28;20185;-74
2022/04/29 08:12:33;;;;;;;15.07;12.80;;;19.90;90.30;;;;;;4974464;28;20665;-74
2022/04/29 08:14:59;;;;;;;12.55;11.35;;;19.80;90.50;;;;;;4967373;28;20186;-73
2022/04/29 08:17:25;;;;;;;12.55;11.48;;;19.90;87.90;;;;;;4968820;28;20193;-74
2022/04/29 08:19:51;;;;;;;15.17;13.60;;;19.80;86.90;;;;;;4954173;28;20213;-74
2022/04/29 08:22:19;;;;;;;13.88;12.57;;;19.80;86.00;;;;;;4954085;29;20255;-75
2022/04/29 08:24:45;;;;;;;16.77;14.98;;;19.60;88.70;;;;;;4954005;28;20205;-72
2022/04/29 08:27:12;;;;;;;16.52;14.82;;;19.70;87.30;;;;;;4959412;28;20251;-74
2022/04/29 08:29:38;;;;;;;19.25;16.58;;;19.70;87.60;;;;;;4972180;28;20188;-74
2022/04/29 08:32:05;;;;;;;15.48;13.88;;;19.90;86.10;;;;;;4973543;28;20188;-74
2022/04/29 08:34:33;;;;;;;17.10;15.40;;;19.80;86.40;;;;;;4972860;28;20853;-74
2022/04/29 08:37:02;;;;;;;15.30;13.93;;;19.80;90.00;;;;;;4971687;28;20236;-74
2022/04/29 08:39:29;;;;;;;16.00;14.60;;;19.50;90.00;;;;;;4971913;28;20568;-76
2022/04/29 08:42:00;;;;;;;15.60;14.17;;;19.00;89.70;;;;;;4971804;28;20304;-75
2022/04/29 08:44:29;;;;;;;14.40;13.13;;;18.90;91.20;;;;;;4973165;28;20205;-74
2022/04/29 08:46:56;;;;;;;12.60;11.33;;;18.90;88.80;;;;;;4973069;28;20213;-76
2022/04/29 08:49:23;;;;;;;13.60;12.23;;;19.10;90.20;;;;;;4973097;28;20223;-74
2022/04/29 08:51:49;;;;;;;13.30;12.00;;;19.20;88.60;;;;;;4972985;28;20208;-75
2022/04/29 08:58:36;;;;;;;12.30;11.23;;;19.60;85.50;;;;;;4972813;28;20307;-75
2022/04/29 08:59:48;;;;;;;17.03;15.50;;;20.50;81.50;;;;;;4972524;28;20181;-74
2022/04/29 09:02:14;;;;;;;18.38;16.80;;;20.50;78.50;;;;;;4972574;28;20208;-74
2022/04/29 09:04:40;;;;;;;14.98;13.80;;;20.40;75.20;;;;;;4972181;28;20782;-74
2022/04/29 09:07:05;;;;;;;14.82;13.63;;;20.50;77.00;;;;;;4955067;28;20695;-75
2022/04/29 09:09:31;;;;;;;16.60;15.35;;;20.70;78.00;;;;;;4972120;28;20280;-75
2022/04/29 09:12:14;;;;;;;19.10;17.73;;;20.70;77.00;;;;;;4973047;28;20183;-75
2022/04/29 09:14:40;;;;;;;17.10;15.52;;;20.70;72.60;;;;;;5040112;22;20253;-71
2022/04/29 09:17:06;;;;;;;15.63;14.52;;;20.70;70.10;;;;;;5032377;28;20178;-71
2022/04/29 09:19:34;;;;;;;11.73;10.82;;;21.00;69.40;;;;;;5050669;28;20225;-71
2022/04/29 09:22:04;;;;;;;12.65;11.75;;;22.00;67.80;;;;;;5050731;28;20300;-72
2022/04/29 09:24:30;;;;;;;6.60;6.20;;;22.70;66.70;;;;;;5050749;28;20197;-71
2022/04/29 09:27:05;;;;;;;6.78;6.28;;;22.80;56.00;;;;;;5050448;28;20193;-71
2022/04/29 09:29:40;;;;;;;5.90;5.50;;;22.80;55.60;;;;;;5032535;28;20192;-71
2022/04/29 09:32:06;;;;;;;6.80;6.20;;;22.70;54.60;;;;;;5050150;28;20181;-71
2022/04/29 09:34:46;;;;;;;6.30;5.80;;;22.90;54.50;;;;;;5050749;28;20623;-71
2022/04/29 09:37:23;;;;;;;6.22;5.63;;;23.20;53.90;;;;;;5050457;28;20190;-71
2022/04/29 09:39:56;;;;;;;6.53;5.93;;;23.50;50.70;;;;;;5050430;28;20276;-71
2022/04/29 09:42:22;;;;;;;7.10;6.50;;;23.70;50.50;;;;;;5050478;28;20219;-71
2022/04/29 09:44:48;;;;;;;5.95;5.55;;;23.20;49.60;;;;;;5050088;28;20689;-71
2022/04/29 09:47:19;;;;;;;5.97;5.57;;;22.90;50.30;;;;;;5050320;28;20578;-71
2022/04/29 09:49:55;;;;;;;5.60;5.20;;;22.90;49.90;;;;;;5032996;28;20684;-71
2022/04/29 09:52:23;;;;;;;6.03;5.72;;;23.30;49.20;;;;;;5033012;28;20193;-71
2022/04/29 09:54:50;;;;;;;6.35;5.93;;;23.60;48.20;;;;;;5050524;28;20198;-71
2022/04/29 09:57:17;;;;;;;5.93;5.53;;;23.40;47.90;;;;;;5050170;28;20189;-71
2022/04/29 09:59:46;;;;;;;6.22;5.75;;;23.10;47.00;;;;;;5032589;28;20186;-71
2022/04/29 10:02:26;;;;;;;5.88;5.55;;;23.00;47.20;;;;;;5050473;28;20209;-71
2022/04/29 10:04:54;;;;;;;5.60;5.20;;;23.40;47.40;;;;;;5050370;28;20248;-71
2022/04/29 10:07:22;;;;;;;6.57;6.07;;;23.80;46.20;;;;;;5050191;28;20178;-71
2022/04/29 10:09:52;;;;;;;6.50;6.00;;;23.90;45.00;;;;;;5050175;28;20187;-72
2022/04/29 10:12:21;;;;;;;5.97;5.68;;;23.50;45.20;;;;;;5050071;28;20193;-71
2022/04/29 10:14:49;;;;;;;5.80;5.40;;;23.50;46.60;;;;;;5050267;28;20735;-73
2022/04/29 10:22:49;;;;;;;5.82;5.15;;;23.90;45.10;;;;;;5050531;28;20218;-72
2022/04/29 10:25:16;;;;;;;5.50;5.10;;;23.40;45.10;;;;;;5050434;28;20194;-72
2022/04/29 10:27:43;;;;;;;6.20;5.70;;;22.90;45.20;;;;;;5032177;28;20177;-72
2022/04/29 10:30:10;;;;;;;5.50;5.20;;;22.60;46.10;;;;;;5050108;28;20598;-71
2022/04/29 10:32:58;;;;;;;5.30;4.97;;;22.70;47.40;;;;;;5032262;28;20179;-71
2022/04/29 10:35:39;;;;;;;5.70;5.30;;;22.80;46.80;;;;;;5032365;28;20257;-72
2022/04/29 10:38:35;;;;;;;6.40;5.90;;;22.90;46.70;;;;;;5049765;28;20654;-72
2022/04/29 10:41:07;;;;;;;6.78;6.13;;;23.10;46.30;;;;;;5049575;28;20190;-72
2022/04/29 10:43:38;;;;;;;6.03;5.63;;;23.00;46.30;;;;;;5035500;28;20585;-72
2022/04/29 10:46:04;;;;;;;5.75;5.22;;;23.10;45.50;;;;;;5054109;28;20193;-72
2022/04/29 10:48:34;;;;;;;6.68;5.70;;;23.20;44.90;;;;;;5053642;28;20166;-72
2022/04/29 10:51:09;;;;;;;5.60;5.10;;;23.70;45.60;;;;;;5036063;28;20189;-72
2022/04/29 10:53:41;;;;;;;5.93;5.45;;;24.50;44.00;;;;;;5039129;28;20225;-72
2022/04/29 10:56:25;;;;;;;6.60;6.20;;;25.40;43.40;;;;;;5037316;28;20180;-72
2022/04/29 10:58:51;;;;;;;8.00;6.90;;;25.50;41.20;;;;;;5035526;28;20193;-72
2022/04/29 11:01:17;;;;;;;6.05;5.55;;;25.30;42.40;;;;;;5053607;28;20183;-72
2022/04/29 11:03:46;;;;;;;5.25;4.85;;;25.40;41.40;;;;;;5018824;28;20755;-70
2022/04/29 11:06:13;;;;;;;5.05;4.65;;;25.80;41.10;;;;;;5053774;28;20174;-70
2022/04/29 11:08:40;;;;;;;5.47;5.18;;;25.20;42.10;;;;;;5052971;28;20182;-71
2022/04/29 11:11:07;;;;;;;5.70;5.30;;;24.80;41.90;;;;;;5052919;28;20201;-71
2022/04/29 11:13:42;;;;;;;5.90;5.40;;;24.70;41.40;;;;;;5052964;28;20205;-71
2022/04/29 11:16:11;;;;;;;5.63;5.28;;;24.30;41.60;;;;;;5053248;28;20181;-71
2022/04/29 11:18:40;;;;;;;5.05;4.75;;;24.30;41.50;;;;;;5052980;28;20178;-72
2022/04/29 11:26:53;;;;;;;4.97;4.70;;;25.70;39.50;;;;;;5041258;28;20198;-71
2022/04/29 11:29:19;;;;;;;5.45;5.00;;;25.90;39.60;;;;;;5032954;28;20229;-72
2022/04/29 11:31:45;;;;;;;5.68;5.35;;;26.20;39.20;;;;;;5032929;28;20171;-71
2022/04/29 11:34:14;;;;;;;7.82;6.20;;;25.40;39.00;;;;;;5032863;28;20194;-71
2022/04/29 11:36:40;;;;;;;5.75;5.32;;;26.10;39.00;;;;;;5032945;28;20179;-71
2022/04/29 11:39:15;;;;;;;5.85;5.47;;;26.80;39.30;;;;;;5048006;28;20182;-71
2022/04/29 11:41:59;;;;;;;6.03;5.63;;;27.10;37.40;;;;;;5052609;28;20296;-71
2022/04/29 11:44:42;;;;;;;5.63;5.13;;;27.10;36.90;;;;;;5032402;28;20256;-71
2022/04/29 11:47:08;;;;;;;5.80;5.50;;;27.10;37.00;;;;;;5033010;28;20186;-74
2022/04/29 11:49:37;;;;;;;4.82;4.53;;;27.40;37.20;;;;;;5052403;28;20179;-71
2022/04/29 11:52:22;;;;;;;5.28;4.88;;;27.00;37.90;;;;;;5051304;28;20269;-71
2022/04/29 11:54:59;;;;;;;5.35;4.35;;;28.00;36.90;;;;;;5052173;28;20734;-72
2022/04/29 11:57:26;;;;;;;4.90;4.50;;;27.90;36.90;;;;;;5034407;28;20177;-72
2022/04/29 11:59:52;;;;;;;4.65;4.43;;;27.30;36.20;;;;;;5052664;28;20182;-73
2022/04/29 12:02:21;;;;;;;5.32;4.82;;;27.20;36.90;;;;;;5051835;28;20662;-73
2022/04/29 12:05:01;;;;;;;5.35;4.70;;;27.30;36.00;;;;;;5051942;28;20221;-72
2022/04/29 12:07:28;;;;;;;4.55;4.28;;;27.10;36.00;;;;;;5031773;28;20179;-72
2022/04/29 12:09:55;;;;;;;6.68;5.20;;;26.50;37.20;;;;;;5031956;28;20377;-72
2022/04/29 12:12:25;;;;;;;6.20;5.80;;;25.50;39.00;;;;;;5014375;28;20195;-70
2022/04/29 12:14:51;;;;;;;8.18;7.28;;;25.30;39.80;;;;;;5014256;28;20579;-72
2022/04/29 12:17:17;;;;;;;7.00;6.50;;;24.80;40.60;;;;;;5031268;28;20187;-70
2022/04/29 12:19:43;;;;;;;6.15;5.68;;;24.50;41.30;;;;;;5041648;28;20252;-72
2022/04/29 12:22:09;;;;;;;5.63;5.10;;;24.00;42.00;;;;;;5051426;28;20612;-71
2022/04/29 12:24:42;;;;;;;7.10;6.50;;;24.00;42.10;;;;;;5043683;28;20203;-81
2022/04/29 12:27:09;;;;;;;8.18;7.65;;;23.80;42.60;;;;;;5012222;28;20182;-76
2022/04/29 12:29:38;;;;;;;10.25;9.70;;;23.00;42.70;;;;;;5022775;28;20186;-76
2022/04/29 12:35:11;;;;;;;10.00;9.40;;;23.20;45.20;;;;;;5054650;28;20213;-77
2022/04/29 12:37:38;;;;;;;8.63;7.93;;;23.70;42.30;;;;;;5051352;28;20773;-71
2022/04/29 12:40:08;;;;;;;7.43;6.85;;;23.60;42.30;;;;;;5044324;28;20257;-71
2022/04/29 12:42:34;;;;;;;8.07;7.57;;;24.20;41.90;;;;;;5029973;28;20225;-72
2022/04/29 12:45:22;;;;;;;8.50;8.00;;;24.10;42.30;;;;;;5031480;28;20565;-72
2022/04/29 12:47:50;;;;;;;8.10;7.53;;;23.90;42.90;;;;;;5048832;28;20178;-72
2022/04/29 12:50:23;;;;;;;9.32;8.75;;;24.00;42.60;;;;;;5053268;28;20267;-74
2022/04/29 12:52:54;;;;;;;7.70;7.07;;;24.20;43.70;;;;;;5035343;28;20182;-72
2022/04/29 12:55:21;;;;;;;7.65;7.25;;;24.10;43.50;;;;;;5051830;28;20205;-73
2022/04/29 12:57:47;;;;;;;12.25;11.48;;;23.90;42.50;;;;;;5050866;28;20778;-71
2022/04/29 13:00:25;;;;;;;12.65;12.00;;;23.70;43.30;;;;;;5032742;28;20620;-72
2022/04/29 13:03:10;;;;;;;11.70;11.00;;;23.70;44.00;;;;;;5050311;28;20201;-71
2022/04/29 13:05:37;;;;;;;10.93;10.18;;;24.10;43.60;;;;;;5051448;28;20214;-71
2022/04/29 13:08:04;;;;;;;8.05;7.53;;;24.50;43.70;;;;;;5053506;28;20522;-71
2022/04/29 13:10:40;;;;;;;6.43;5.82;;;25.20;41.70;;;;;;5053535;28;20186;-71
2022/04/29 13:13:05;;;;;;;5.82;5.43;;;25.20;41.10;;;;;;5049989;28;20726;-72
2022/04/29 13:15:33;;;;;;;8.63;7.65;;;25.10;42.90;;;;;;5048670;28;20217;-71
2022/04/29 13:17:59;;;;;;;8.95;8.35;;;24.60;44.00;;;;;;5031209;28;20228;-71
2022/04/29 13:20:26;;;;;;;8.18;7.68;;;24.50;43.10;;;;;;5049454;28;20685;-72
2022/04/29 13:22:53;;;;;;;6.30;5.93;;;25.00;41.90;;;;;;5049386;28;20579;-72
2022/04/29 13:25:20;;;;;;;6.03;5.72;;;26.20;39.80;;;;;;5049718;28;20222;-71
2022/04/29 13:27:46;;;;;;;6.18;5.78;;;27.20;39.70;;;;;;5049208;28;20190;-71
2022/04/29 13:30:12;;;;;;;6.80;6.28;;;28.50;36.30;;;;;;5051240;28;20182;-72
2022/04/29 13:32:38;;;;;;;5.47;5.03;;;28.50;37.60;;;;;;5051398;28;20278;-72
2022/04/29 13:35:06;;;;;;;5.10;4.80;;;28.60;37.00;;;;;;5051513;28;20198;-71
2022/04/29 13:37:34;;;;;;;5.88;5.47;;;29.60;36.20;;;;;;5050600;28;20269;-71
2022/04/29 13:40:00;;;;;;;5.28;4.97;;;29.10;35.60;;;;;;5050702;28;20192;-71
2022/04/29 13:42:27;;;;;;;5.63;5.10;;;28.60;37.20;;;;;;5032613;28;20296;-72
2022/04/29 13:44:53;;;;;;;5.50;5.10;;;28.40;37.00;;;;;;5032933;28;20591;-72
2022/04/29 13:47:20;;;;;;;5.30;5.00;;;28.50;37.20;;;;;;5050387;28;20184;-71
2022/04/29 13:49:46;;;;;;;5.20;4.80;;;28.30;36.40;;;;;;5050815;28;20288;-72
2022/04/29 13:54:56;;;;;;;6.55;5.72;;;28.30;37.30;;;;;;5050397;28;20289;-72
2022/04/29 13:57:24;;;;;;;5.60;5.10;;;27.80;36.50;;;;;;5050449;28;20210;-71
2022/04/29 13:59:50;;;;;;;6.03;5.55;;;27.40;37.90;;;;;;5050773;28;20712;-71
2022/04/29 14:02:16;;;;;;;5.22;4.93;;;27.80;36.80;;;;;;5050700;28;20205;-71
2022/04/29 14:04:42;;;;;;;5.68;5.22;;;27.70;37.90;;;;;;5050669;28;20208;-72
2022/04/29 14:07:08;;;;;;;5.50;5.10;;;26.80;37.90;;;;;;5050585;28;20662;-70
2022/04/29 14:09:34;;;;;;;5.38;5.00;;;26.00;38.60;;;;;;5050443;28;20178;-70
2022/04/29 14:12:01;;;;;;;6.60;6.30;;;25.40;38.90;;;;;;5032828;28;20657;-70
2022/04/29 14:14:27;;;;;;;6.35;5.82;;;25.20;39.90;;;;;;5050424;28;20229;-70
2022/04/29 14:16:53;;;;;;;8.45;7.80;;;25.60;38.90;;;;;;5054073;28;20179;-71
2022/04/29 14:19:19;;;;;;;6.20;5.82;;;25.70;39.30;;;;;;5055407;28;20179;-71
2022/04/29 14:21:44;;;;;;;6.30;5.70;;;26.00;38.10;;;;;;5036366;28;20693;-71
2022/04/29 14:24:10;;;;;;;6.43;6.00;;;25.80;38.40;;;;;;5054232;28;20206;-72
2022/04/29 14:26:36;;;;;;;7.97;6.13;;;25.50;38.70;;;;;;5054223;28;20174;-71
2022/04/29 14:29:02;;;;;;;7.68;7.25;;;24.70;38.80;;;;;;5053854;28;20273;-71
2022/04/29 14:31:30;;;;;;;8.07;7.57;;;24.00;40.20;;;;;;5054037;28;20185;-71
2022/04/29 14:33:58;;;;;;;7.38;6.97;;;23.60;41.70;;;;;;5053972;28;20285;-71
2022/04/29 14:36:26;;;;;;;8.88;8.27;;;23.60;41.20;;;;;;5035957;28;20200;-71
2022/04/29 14:38:53;;;;;;;9.32;8.48;;;23.40;41.30;;;;;;5036284;28;20178;-71
2022/04/29 14:41:19;;;;;;;9.20;8.65;;;23.40;41.30;;;;;;5054216;28;20181;-71
2022/04/29 14:43:45;;;;;;;14.23;13.38;;;23.00;42.50;;;;;;5036001;28;20252;-71
2022/04/29 14:46:11;;;;;;;13.65;12.85;;;22.80;43.50;;;;;;5053867;28;20175;-72
2022/04/29 14:48:43;;;;;;;12.48;11.80;;;22.90;43.20;;;;;;5053333;28;20308;-72
2022/04/29 14:51:09;;;;;;;12.88;11.98;;;23.00;43.10;;;;;;5053490;28;20202;-71
2022/04/29 14:53:37;;;;;;;11.93;11.02;;;23.00;42.70;;;;;;5053555;28;20306;-72
2022/04/29 14:56:07;;;;;;;13.18;12.38;;;23.00;43.40;;;;;;5035841;28;20240;-72
2022/04/29 14:58:33;;;;;;;15.18;13.88;;;23.20;43.40;;;;;;5053313;28;20177;-71
2022/04/29 15:00:58;;;;;;;17.88;16.85;;;23.40;42.70;;;;;;5053538;28;20239;-71
2022/04/29 15:03:25;;;;;;;15.93;14.93;;;23.50;42.70;;;;;;5052684;28;20198;-70
2022/04/29 15:05:51;;;;;;;13.88;13.07;;;23.40;44.40;;;;;;5053578;28;20551;-72
2022/04/29 15:08:17;;;;;;;15.18;14.35;;;23.30;43.70;;;;;;5053424;28;20171;-72
2022/04/29 15:16:12;;;;;;;13.35;12.32;;;24.50;41.30;;;;;;5043033;22;20409;-74
2022/04/29 15:18:38;;;;;;;9.65;8.93;;;24.60;42.40;;;;;;5012071;28;20262;-74
2022/04/29 15:21:05;;;;;;;10.38;9.75;;;24.70;42.10;;;;;;5033471;28;20183;-73
2022/04/29 15:23:31;;;;;;;12.35;11.73;;;24.10;42.10;;;;;;5015833;28;20222;-73
2022/04/29 15:25:58;;;;;;;15.60;14.60;;;23.70;43.40;;;;;;5033307;28;20205;-74
2022/04/29 15:28:27;;;;;;;15.73;14.63;;;23.30;43.40;;;;;;5014897;28;20179;-74
2022/04/29 15:30:53;;;;;;;14.85;13.95;;;23.50;44.50;;;;;;5030013;28;20267;-73
2022/04/29 15:33:21;;;;;;;12.25;11.40;;;24.10;43.20;;;;;;5013479;28;20180;-73
2022/04/29 15:35:49;;;;;;;11.35;10.65;;;24.80;41.90;;;;;;5014130;28;20228;-73
2022/04/29 15:38:15;;;;;;;9.43;8.65;;;25.10;41.20;;;;;;5013320;28;20238;-73
2022/04/29 15:40:44;;;;;;;9.55;8.60;;;25.20;41.00;;;;;;5013346;28;20217;-73
2022/04/29 15:43:11;;;;;;;8.60;8.10;;;25.40;41.60;;;;;;4995759;28;20227;-73
2022/04/29 15:45:48;;;;;;;11.48;10.77;;;25.00;41.00;;;;;;5006357;28;20222;-73
2022/04/29 15:48:14;;;;;;;13.48;12.27;;;24.30;41.90;;;;;;5014999;28;20179;-72
2022/04/29 15:50:41;;;;;;;14.98;14.18;;;24.00;42.80;;;;;;5032996;28;20178;-73
2022/04/29 15:53:09;;;;;;;11.52;10.82;;;23.70;43.20;;;;;;5015288;28;20232;-72
2022/04/29 15:55:35;;;;;;;13.13;12.27;;;23.40;44.20;;;;;;5032895;28;20195;-73
2022/04/29 15:58:05;;;;;;;15.98;15.02;;;23.50;43.40;;;;;;5031919;28;20669;-73
2022/04/29 16:00:32;;;;;;;12.80;11.95;;;23.20;44.30;;;;;;5009770;28;20188;-73
2022/04/29 16:02:57;;;;;;;12.02;11.43;;;23.10;45.10;;;;;;5012876;28;20212;-73
2022/04/29 16:05:23;;;;;;;14.45;13.35;;;23.10;45.00;;;;;;5012784;28;20199;-73
2022/04/29 16:07:49;;;;;;;13.70;12.88;;;23.20;44.30;;;;;;5012486;28;20180;-72
2022/04/29 16:10:15;;;;;;;17.98;16.80;;;23.30;43.10;;;;;;5012915;28;20190;-73
2022/04/29 16:12:41;;;;;;;13.75;12.98;;;23.50;43.00;;;;;;5019300;28;20179;-73
2022/04/29 16:15:07;;;;;;;16.02;15.05;;;23.80;43.20;;;;;;5032442;28;20218;-73
2022/04/29 16:20:33;;;;;;;14.75;13.63;;;23.00;44.10;;;;;;5032345;28;20183;-72
2022/04/29 16:25:45;;;;;;;14.05;13.23;;;22.30;45.70;;;;;;5033311;28;20687;-73
2022/04/29 16:28:11;;;;;;;13.07;12.18;;;21.90;46.60;;;;;;5029613;28;20175;-73
2022/04/29 16:30:38;;;;;;;11.15;10.38;;;21.70;47.80;;;;;;4994955;28;20175;-73